Latest Weather Observations for Gayndah

IDQ60801

Issued at 11:35 pm EST Monday 1 September 2014 (issued every 30 minutes, with the page automatically refreshed every 10 minutes)

About weather observations | Map of weather stations | Latest weather observations for QLD | Other Formats
Station Details ID: 039066 Name: GAYNDAH AIRPORT Lat: -25.62 Lon: 151.62 Height: 110.9 m
Data from the previous 72 hours. | See also: Recent months at Gayndah
Date/Time
EST
Temp
°C
App
Temp
°C
Dew
Point
Rel
Hum
%
Delta-T
°C
Wind Press
QNH
hPa
Press
MSL
hPa
Rain
since 9 am
mm
Dir
 
Spd
km/h
Gust
km/h
Spd
kts
Gust
kts
01/11:30pm 13.5 13.2 8.8 73 2.4 NE 0 2 0 1 1016.9 1016.6 0.0
01/11:00pm 13.9 13.2 8.7 71 2.6 E 2 4 1 2 1017.1 1016.8 0.0
01/10:30pm 14.1 13.7 8.3 68 2.9 CALM 0 0 0 0 1016.7 1016.4 0.0
01/10:00pm 15.4 15.0 8.4 63 3.6 CALM 0 0 0 0 1017.0 1016.7 0.0
01/09:30pm 15.3 14.0 7.8 61 3.8 ENE 4 6 2 3 1017.3 1017.0 0.0
01/09:00pm 16.4 14.6 7.9 57 4.3 NE 7 9 4 5 1017.1 1016.8 0.0
01/08:30pm 17.4 15.5 7.7 53 4.9 NE 7 9 4 5 1017.1 1016.8 0.0
01/08:00pm 18.3 16.1 8.0 51 5.3 NE 9 11 5 6 1016.9 1016.6 0.0
01/07:30pm 19.9 18.0 7.6 45 6.3 NNE 7 15 4 8 1016.9 1016.6 0.0
01/07:00pm 21.0 17.7 8.0 43 6.8 NNE 15 22 8 12 1016.3 1016.0 0.0
01/06:30pm 20.4 17.9 3.6 33 8.0 N 6 7 3 4 1016.1 1015.8 0.0
01/06:00pm 22.9 20.3 3.4 28 9.5 N 6 6 3 3 1015.6 1015.2 0.0
01/05:30pm 24.5 22.1 2.0 23 10.8 N 4 7 2 4 1015.3 1014.9 0.0
01/05:00pm 25.6 22.6 1.7 21 11.4 N 7 11 4 6 1015.1 1014.7 0.0
01/04:30pm 26.3 23.3 0.9 19 12.1 N 6 13 3 7 1015.0 1014.6 0.0
01/04:00pm 26.2 21.9 0.8 19 12.0 N 13 20 7 11 1014.7 1014.3 0.0
01/03:30pm 26.8 23.4 2.0 20 12.1 NW 9 19 5 10 1014.8 1014.4 0.0
01/03:00pm 26.3 23.5 2.3 21 11.7 E 6 19 3 10 1015.2 1014.8 0.0
01/02:30pm 25.9 21.5 2.6 22 11.4 NE 15 20 8 11 1015.3 1014.9 0.0
01/02:00pm 26.2 22.7 3.5 23 11.3 NNE 11 22 6 12 1015.5 1015.1 0.0
01/01:30pm 25.9 23.3 3.2 23 11.2 W 6 13 3 7 1016.4 1016.1 0.0
01/01:00pm 25.5 22.5 4.0 25 10.7 ENE 9 20 5 11 1016.9 1016.6 0.0
01/12:30pm 25.8 23.3 4.9 26 10.6 SSE 7 20 4 11 1017.4 1017.1 0.0
01/12:00pm 24.9 22.6 5.7 29 9.8 W 7 13 4 7 1018.2 1017.9 0.0
01/11:30am 24.2 22.1 6.0 31 9.3 E 6 15 3 8 1018.5 1018.2 0.0
01/11:00am 22.4 20.9 6.6 36 8.1 NNW 4 7 2 4 1018.8 1018.5 0.0
01/10:30am 21.7 20.7 7.2 39 7.5 S 2 6 1 3 1019.4 1019.1 0.0
01/10:00am 20.4 19.0 7.1 42 6.8 SSW 4 9 2 5 1019.9 1019.6 0.0
01/09:30am 19.6 17.8 7.0 44 6.4 SW 6 13 3 7 1020.7 1020.6 0.0
01/09:00am 17.9 17.3 9.0 56 4.6 SSW 2 7 1 4 1020.6 1020.5 0.0
01/08:30am 15.8 16.0 12.0 78 2.1 SSW 2 4 1 2 1020.5 1020.4 0.0
01/08:00am 13.6 13.9 10.8 83 1.5 CALM 0 2 0 1 1020.4 1020.3 0.0
01/07:30am 11.3 11.4 10.0 92 0.7 CALM 0 0 0 0 1020.0 1019.9 0.0
01/07:00am 9.6 9.4 9.0 96 0.3 CALM 0 0 0 0 1019.6 1019.5 0.0
01/06:30am 8.3 7.4 7.9 97 0.2 WSW 2 7 1 4 1019.3 1019.2 0.0
01/06:00am 8.2 7.6 7.6 96 0.3 CALM 0 0 0 0 1018.8 1018.7 0.0
01/05:30am 8.4 7.9 8.0 97 0.2 CALM 0 0 0 0 1018.3 1018.2 0.0
01/05:00am 8.5 8.0 7.9 96 0.3 CALM 0 0 0 0 1018.2 1018.1 0.0
01/04:30am 8.4 7.4 7.2 92 0.6 W 2 4 1 2 1018.1 1018.0 0.0
01/04:00am 9.4 9.1 8.8 96 0.3 CALM 0 0 0 0 1018.0 1017.9 0.0
01/03:30am 10.2 10.1 9.4 95 0.4 CALM 0 0 0 0 1017.8 1017.7 0.0
01/03:00am 10.7 10.7 9.8 94 0.5 CALM 0 0 0 0 1017.9 1017.8 0.0
01/02:30am 10.8 10.7 9.6 92 0.6 CALM 0 0 0 0 1018.1 1018.0 0.0
01/02:00am 11.1 10.1 8.7 85 1.2 ESE 4 6 2 3 1018.3 1018.2 0.0
01/01:30am 11.7 11.2 9.4 86 1.2 SE 2 6 1 3 1018.4 1018.3 0.0
01/01:00am 11.2 10.8 8.4 83 1.4 CALM 0 0 0 0 1018.5 1018.4 0.0
01/12:30am 11.7 11.3 8.2 79 1.7 CALM 0 0 0 0 1018.6 1018.5 0.0
01/12:00am 12.4 11.9 7.9 74 2.2 SSW 0 0 0 0 1018.7 1018.6 0.0
 
Date/Time
EST
Temp
°C
App
Temp
°C
Dew
Point
Rel
Hum
%
Delta-T
°C
Wind Press
QNH
hPa
Press
MSL
hPa
Rain
since 9 am
mm
Dir
 
Spd
km/h
Gust
km/h
Spd
kts
Gust
kts
31/11:30pm 13.6 13.3 8.7 72 2.5 CALM 0 2 0 1 1018.6 1018.5 0.0
31/11:00pm 13.3 11.5 8.0 70 2.6 E 7 7 4 4 1018.4 1018.3 0.0
31/10:30pm 13.7 12.0 7.7 67 3.0 E 6 7 3 4 1018.5 1018.4 0.0
31/10:00pm 14.8 13.7 8.3 65 3.3 ENE 4 7 2 4 1018.5 1018.4 0.0
31/09:30pm 15.6 13.9 8.4 62 3.7 E 7 11 4 6 1018.3 1018.2 0.0
31/09:00pm 15.2 13.3 7.5 60 3.8 E 7 11 4 6 1018.1 1018.0 0.0
31/08:30pm 16.7 15.7 7.4 54 4.7 ENE 2 7 1 4 1018.0 1017.9 0.0
31/08:00pm 16.8 14.4 7.2 53 4.8 ENE 9 11 5 6 1017.5 1017.3 0.0
31/07:30pm 16.6 13.8 5.3 47 5.4 NNE 9 17 5 9 1017.1 1016.9 0.0
31/07:00pm 17.7 16.1 2.5 36 7.0 CALM 0 0 0 0 1016.4 1016.2 0.0
31/06:30pm 18.4 16.6 1.4 32 7.7 CALM 0 2 0 1 1016.1 1015.9 0.0
31/06:00pm 20.9 18.3 1.2 27 9.0 N 4 4 2 2 1015.7 1015.5 0.0
31/05:30pm 23.5 20.9 1.2 23 10.4 NNW 4 7 2 4 1015.5 1015.3 0.0
31/05:00pm 25.1 21.9 0.6 20 11.5 WNW 7 9 4 5 1015.3 1015.1 0.0
31/04:30pm 25.5 21.8 0.2 19 11.8 NW 9 13 5 7 1015.1 1014.9 0.0
31/04:00pm 25.5 21.6 -1.3 17 12.1 NW 9 15 5 8 1015.0 1014.8 0.0
31/03:30pm 25.7 21.6 -0.4 18 12.0 W 11 19 6 10 1014.9 1014.7 0.0
31/03:00pm 25.6 22.2 1.7 21 11.4 NNW 9 15 5 8 1015.0 1014.8 0.0
31/02:30pm 25.7 22.1 0.4 19 11.8 W 9 15 5 8 1015.2 1015.0 0.0
31/02:00pm 25.5 22.2 2.2 22 11.3 NW 9 15 5 8 1015.3 1015.1 0.0
31/01:30pm 25.5 22.3 2.9 23 11.1 WNW 9 13 5 7 1015.7 1015.5 0.0
31/01:00pm 24.4 21.4 1.9 23 10.7 NNE 7 15 4 8 1016.1 1015.9 0.0
31/12:30pm 24.4 21.2 3.1 25 10.4 E 9 15 5 8 1016.7 1016.5 0.0
31/12:00pm 23.9 21.5 4.3 28 9.7 W 6 13 3 7 1017.3 1017.1 0.0
31/11:30am 23.2 21.0 6.1 33 8.7 WNW 7 15 4 8 1017.8 1017.7 0.0
31/11:00am 22.0 19.9 5.8 35 8.2 W 6 11 3 6 1018.4 1018.3 0.0
31/10:30am 20.7 19.4 7.7 43 6.7 W 4 9 2 5 1018.9 1018.8 0.0
31/10:00am 19.7 18.4 7.8 46 6.1 W 4 7 2 4 1019.3 1019.2 0.0
31/09:30am 17.9 16.7 8.2 53 5.0 WNW 4 6 2 3 1019.6 1019.5 0.0
31/09:00am 16.5 14.5 6.1 50 5.1 W 6 9 3 5 1019.7 1019.6 0.0
31/08:30am 14.7 12.5 5.5 54 4.4 WSW 6 9 3 5 1019.9 1019.8 0.0
31/08:00am 13.0 10.6 4.2 55 4.0 WSW 6 7 3 4 1019.8 1019.7 0.0
31/07:30am 11.3 8.8 4.5 63 3.1 WSW 7 11 4 6 1019.7 1019.6 0.0
31/07:00am 9.3 7.1 5.3 76 1.8 WSW 6 9 3 5 1019.5 1019.4 0.0
31/06:30am 6.7 5.2 4.9 88 0.8 SW 2 6 1 3 1019.0 1018.9 0.0
31/06:00am 6.8 5.8 5.4 91 0.6 CALM 0 0 0 0 1018.8 1018.7 0.0
31/05:30am 6.2 4.9 4.0 86 0.9 CALM 0 0 0 0 1018.6 1018.5 0.0
31/05:00am 6.8 5.5 4.3 84 1.1 CALM 0 4 0 2 1018.3 1018.2 0.0
31/04:30am 7.3 6.2 5.0 85 1.0 CALM 0 0 0 0 1018.2 1018.1 0.0
31/04:00am 7.4 6.1 4.2 80 1.4 CALM 0 0 0 0 1018.0 1017.9 0.0
31/03:30am 8.1 7.0 4.9 80 1.4 CALM 0 0 0 0 1018.1 1018.0 0.0
31/03:00am 8.9 7.7 4.7 75 1.9 CALM 0 0 0 0 1018.1 1018.0 0.0
31/02:30am 8.9 6.9 4.3 73 2.0 S 4 4 2 2 1018.2 1018.1 0.0
31/02:00am 9.3 7.2 3.9 69 2.4 S 4 4 2 2 1018.4 1018.3 0.0
31/01:30am 9.5 8.1 3.3 65 2.7 CALM 0 0 0 0 1018.5 1018.4 0.0
31/01:00am 9.8 8.2 2.6 61 3.1 CALM 0 0 0 0 1018.7 1018.6 0.0
31/12:30am 10.2 8.5 1.8 56 3.5 CALM 0 0 0 0 1018.9 1018.8 0.0
31/12:00am 10.3 8.2 1.9 56 3.5 SSE 2 7 1 4 1019.1 1019.0 0.0
 
Date/Time
EST
Temp
°C
App
Temp
°C
Dew
Point
Rel
Hum
%
Delta-T
°C
Wind Press
QNH
hPa
Press
MSL
hPa
Rain
since 9 am
mm
Dir
 
Spd
km/h
Gust
km/h
Spd
kts
Gust
kts
30/11:30pm 11.8 10.3 2.8 54 3.9 CALM 0 0 0 0 1019.3 1019.2 0.0
30/11:00pm 12.4 11.2 4.6 59 3.6 CALM 0 0 0 0 1019.3 1019.2 0.0
30/10:30pm 13.6 11.6 -0.1 39 5.7 CALM 0 0 0 0 1019.2 1019.1 0.0
30/10:00pm 14.7 11.9 -0.6 35 6.4 ENE 4 6 2 3 1019.1 1019.0 0.0
30/09:30pm 15.3 12.5 -0.4 34 6.6 SE 4 9 2 5 1019.0 1018.9 0.0
30/09:00pm 14.1 12.1 0.0 38 5.9 CALM 0 0 0 0 1018.4 1018.3 0.0
30/08:30pm 14.9 12.8 -0.8 34 6.5 CALM 0 0 0 0 1018.2 1018.1 0.0
30/08:00pm 15.9 13.7 -1.6 30 7.2 CALM 0 2 0 1 1017.9 1017.8 0.0
30/07:30pm 17.3 14.5 -2.9 25 8.2 SSW 2 6 1 3 1017.6 1017.4 0.0
30/07:00pm 20.4 15.8 -4.0 19 10.0 SSW 11 17 6 9 1017.3 1017.1 0.0
30/06:30pm 21.3 16.3 -4.7 17 10.6 S 13 17 7 9 1017.1 1016.9 0.0
30/06:00pm 20.6 16.3 -4.5 18 10.2 S 9 11 5 6 1016.8 1016.6 0.0
30/05:30pm 22.4 17.4 -4.6 16 11.2 S 13 19 7 10 1016.5 1016.3 0.0
30/05:00pm 23.6 18.4 -6.4 13 12.1 S 13 19 7 10 1016.1 1015.9 0.0
30/04:30pm 24.4 19.1 -6.8 12 12.6 SSW 13 26 7 14 1015.9 1015.7 0.0
30/04:00pm 24.6 18.5 -7.8 11 12.9 S 17 26 9 14 1015.9 1015.7 0.0
30/03:30pm 25.6 20.2 -4.8 13 12.9 S 15 28 8 15 1015.8 1015.6 0.0
30/03:00pm 25.2 19.1 -4.2 14 12.6 SSW 19 28 10 15 1015.8 1015.6 0.0
30/02:30pm 24.8 20.1 -1.9 17 11.9 SSW 13 20 7 11 1016.1 1015.9 0.0
30/02:00pm 24.6 19.2 -1.3 18 11.6 SW 17 26 9 14 1016.5 1016.3 0.0
30/01:30pm 24.3 20.7 3.0 25 10.4 SW 11 22 6 12 1016.9 1016.7 0.0
30/01:00pm 23.1 20.0 3.6 28 9.5 W 9 17 5 9 1017.5 1017.3 0.0
30/12:30pm 22.9 19.4 3.4 28 9.5 SW 11 28 6 15 1018.0 1017.9 0.0
30/12:00pm 21.9 17.8 2.1 27 9.3 SSW 13 20 7 11 1018.6 1018.5 0.0
30/11:30am 20.5 17.4 3.7 33 8.1 W 9 19 5 10 1019.3 1019.2 0.0
30/11:00am 19.5 16.5 4.0 36 7.4 W 9 15 5 8 1019.9 1019.8 0.0
30/10:30am 18.9 16.3 4.3 38 7.0 WNW 7 13 4 7 1020.4 1020.3 0.0
30/10:00am 17.8 14.9 4.7 42 6.3 W 9 15 5 8 1020.6 1020.5 0.0
30/09:30am 16.6 13.6 4.3 44 5.8 WSW 9 15 5 8 1020.9 1020.8 0.0
30/09:00am 15.3 11.9 3.8 46 5.3 W 11 15 6 8 1021.1 1021.0 0.0
30/08:30am 13.7 10.2 3.5 50 4.6 W 11 17 6 9 1021.5 1021.4 0.0
30/08:00am 13.0 8.8 3.9 54 4.1 WSW 15 20 8 11 1021.5 1021.4 0.0
30/07:30am 11.6 8.7 4.8 63 3.1 SW 9 13 5 7 1021.4 1021.3 0.0
30/07:00am 9.1 6.8 5.7 79 1.5 SW 7 9 4 5 1021.2 1021.1 0.0
30/06:30am 5.9 3.6 4.9 93 0.4 S 6 9 3 5 1021.0 1020.9 0.0
30/06:00am 6.2 4.4 5.3 94 0.4 S 4 6 2 3 1020.8 1020.7 0.0
30/05:30am 6.9 5.3 6.3 96 0.3 S 4 4 2 2 1020.4 1020.3 0.0
30/05:00am 7.2 6.4 6.6 96 0.3 CALM 0 0 0 0 1020.2 1020.1 0.0
30/04:30am 7.1 6.2 6.2 94 0.4 CALM 0 0 0 0 1020.0 1019.9 0.0
30/04:00am 7.6 5.6 6.4 92 0.5 NE 6 7 3 4 1020.1 1020.0 0.0
30/03:30am 9.2 7.4 7.0 86 1.0 WSW 6 9 3 5 1019.7 1019.6 0.0
30/03:00am 9.0 8.6 8.1 94 0.4 CALM 0 0 0 0 1020.0 1019.9 0.0
30/02:30am 9.0 7.4 7.8 92 0.6 S 6 6 3 3 1019.9 1019.8 0.0
30/02:00am 9.7 9.0 8.5 92 0.6 S 2 4 1 2 1020.2 1020.1 0.0
30/01:30am 10.2 9.9 8.6 90 0.8 CALM 0 4 0 2 1020.3 1020.2 0.0
30/01:00am 10.7 10.1 9.1 90 0.8 SW 2 4 1 2 1020.5 1020.4 0.0
30/12:30am 11.1 10.9 9.0 87 1.0 CALM 0 0 0 0 1020.7 1020.6 0.0
30/12:00am 11.3 10.3 8.7 84 1.3 S 4 6 2 3 1020.9 1020.8 0.0

Other Formats:

Comma delimited format used in spreadsheet applications
http://www.bom.gov.au/fwo/IDQ60801/IDQ60801.95543.axf

JavaScript Object Notation format (JSON) in row-major order
http://www.bom.gov.au/fwo/IDQ60801/IDQ60801.95543.json